Allen's Hourly Summary for Tuesday, May 15, 2018
Hour Temp
(f)
RH
(%)
Solar Rad.
(MJ/m2)
Rainfall
(in)
Wind
(mph)
5/15/2018 12:00 AM 76 69 0 0 1.59
5/15/2018 1:00 AM 75 70 0 0 2.09
5/15/2018 2:00 AM 75 70 0 0 2.96
5/15/2018 3:00 AM 74 71 0 0 2.57
5/15/2018 4:00 AM 73 74 0 0 0.64
5/15/2018 5:00 AM 73 73 0 0 1.25
5/15/2018 6:00 AM 72 77 0 0.01 0.55
5/15/2018 7:00 AM 71 80 0.01 0.02 1.37
5/15/2018 8:00 AM 70 85 0.18 0 1.62
5/15/2018 9:00 AM 70 83 0.24 0 2.84
5/15/2018 10:00 AM 69 86 0.25 0.12 3.65
5/15/2018 11:00 AM 70 85 0.88 0 2.59
5/15/2018 12:00 PM 74 66 2.77 0 4.26
5/15/2018 1:00 PM 78 55 2.78 0 4.44
5/15/2018 2:00 PM 80 48 2.27 0 3.66
5/15/2018 3:00 PM 82 46 2.74 0 2.76
5/15/2018 4:00 PM 84 41 2.8 0 2.72
5/15/2018 5:00 PM 85 40 1.79 0 1.63
5/15/2018 6:00 PM 84 39 0.97 0 2.53
5/15/2018 7:00 PM 78 42 0.28 0 4.18
5/15/2018 8:00 PM 74 64 0.13 0 3.75
5/15/2018 9:00 PM 72 63 0.01 0 3.25
5/15/2018 10:00 PM 70 65 0 0 0.84
5/15/2018 11:00 PM 68 73 0 0 0
Data Summary 74 65 18.10 0.15 2.41